createdAt,value
2023-03-23T15:58:39.778Z,5.23
2023-03-23T16:01:28.519Z,4.30
2023-03-23T16:04:04.364Z,3.90
2023-03-23T16:06:33.662Z,3.60
2023-03-23T16:09:01.024Z,3.67
2023-03-23T16:11:29.803Z,3.45
2023-03-23T16:13:56.744Z,3.10
2023-03-23T16:16:28.343Z,3.33
2023-03-23T16:18:55.889Z,3.08
2023-03-23T16:21:23.402Z,2.90
2023-03-23T16:23:50.669Z,3.15
2023-03-23T16:26:18.385Z,3.15
2023-03-23T16:28:46.150Z,2.75
2023-03-23T16:31:13.195Z,3.22
2023-03-23T16:33:40.199Z,2.88
2023-03-23T16:36:08.073Z,2.97
2023-03-23T16:38:49.622Z,3.15
2023-03-23T16:41:18.510Z,3.00
2023-03-23T16:43:45.898Z,2.80
2023-03-23T16:46:13.974Z,3.28
2023-03-23T16:48:40.987Z,2.10
2023-03-23T16:51:08.002Z,2.22
2023-03-23T16:53:35.921Z,2.08
2023-03-23T16:56:03.387Z,2.05
2023-03-23T16:58:30.774Z,2.60
2023-03-23T17:00:57.674Z,2.70
2023-03-23T17:03:24.641Z,2.67
2023-03-23T17:05:52.510Z,2.43
2023-03-23T17:08:20.505Z,2.20
2023-03-23T17:10:48.107Z,2.40
2023-03-23T17:13:14.985Z,2.60
2023-03-23T17:15:46.675Z,2.70
2023-03-23T17:18:14.677Z,2.60
2023-03-23T17:20:42.880Z,2.77
2023-03-23T17:23:09.986Z,2.73
2023-03-23T17:25:36.875Z,6.47
2023-03-23T17:28:05.265Z,3.73
2023-03-23T17:30:44.970Z,3.70
2023-03-23T17:33:12.967Z,4.37
2023-03-23T17:35:40.087Z,5.70
2023-03-23T17:38:07.198Z,8.00
2023-03-23T17:40:37.302Z,4.67
2023-03-23T17:43:04.373Z,6.37
2023-03-23T17:45:31.373Z,4.47
2023-03-23T17:47:58.619Z,8.73
2023-03-23T17:50:26.379Z,7.10
2023-03-23T17:52:53.403Z,15.40
2023-03-23T17:55:20.307Z,7.57
2023-03-23T17:57:47.338Z,6.80
2023-03-23T18:00:15.850Z,6.10
2023-03-23T18:02:42.992Z,12.90
2023-03-23T18:05:10.777Z,15.80
2023-03-23T18:07:37.748Z,8.27
2023-03-23T18:10:12.517Z,13.50
2023-03-23T18:12:42.685Z,25.57
2023-03-23T18:15:10.696Z,18.30
2023-03-23T18:17:38.156Z,6.83
2023-03-23T18:20:07.638Z,8.73
2023-03-23T18:22:34.650Z,5.57
2023-03-23T18:25:02.731Z,3.90
2023-03-23T18:27:32.017Z,3.83
2023-03-23T18:29:59.113Z,4.77
2023-03-23T18:32:27.737Z,4.63
2023-03-23T18:34:55.976Z,4.17
2023-03-23T18:37:23.040Z,4.10
2023-03-23T18:39:50.085Z,3.97
2023-03-23T18:42:17.032Z,3.30
2023-03-23T18:44:43.948Z,5.03
2023-03-23T18:47:11.001Z,5.07
2023-03-23T18:49:38.361Z,3.93
2023-03-23T18:52:06.022Z,2.60
2023-03-23T18:54:34.949Z,3.07
2023-03-23T18:57:02.329Z,3.27
2023-03-23T18:59:30.476Z,3.30
2023-03-23T19:01:57.971Z,3.80
2023-03-23T19:04:25.177Z,3.40
2023-03-23T19:06:52.305Z,3.63
2023-03-23T19:09:19.328Z,3.37
2023-03-23T19:11:47.605Z,4.17
2023-03-23T19:14:15.230Z,3.60
2023-03-23T19:16:42.687Z,3.33
2023-03-23T19:19:09.694Z,3.70
2023-03-23T19:21:37.873Z,3.87
2023-03-23T19:24:07.611Z,3.30
2023-03-23T19:26:38.280Z,2.90
2023-03-23T19:31:38.326Z,3.70
2023-03-23T19:34:05.649Z,3.10
2023-03-23T19:36:33.128Z,3.00
2023-03-23T19:39:02.575Z,2.83
2023-03-23T19:41:31.168Z,2.97
2023-03-23T19:43:59.409Z,3.33
2023-03-23T19:46:29.053Z,3.03
2023-03-23T19:48:57.646Z,3.37
2023-03-23T19:51:25.377Z,3.00
2023-03-23T19:53:52.444Z,2.37
2023-03-23T19:56:24.085Z,2.80
2023-03-23T19:58:51.420Z,3.33
2023-03-23T20:01:18.791Z,7.30
2023-03-23T20:03:46.624Z,9.50
2023-03-23T20:06:15.292Z,2.87
2023-03-23T20:08:45.426Z,2.53
2023-03-23T20:11:17.173Z,2.83
2023-03-23T20:13:45.340Z,3.00
2023-03-23T20:16:12.288Z,2.70
2023-03-23T20:18:40.539Z,3.23
2023-03-23T20:21:10.849Z,3.20
2023-03-23T20:23:38.927Z,3.60
2023-03-23T20:26:12.362Z,2.77
2023-03-23T20:28:39.822Z,3.40
2023-03-23T20:31:17.026Z,3.00
2023-03-23T20:34:01.152Z,5.77
2023-03-23T20:36:36.459Z,2.70
2023-03-23T20:39:19.080Z,2.87
2023-03-23T20:41:48.348Z,2.40
2023-03-23T20:44:15.724Z,3.20
2023-03-23T20:46:44.939Z,2.53
2023-03-23T20:49:14.827Z,2.47
2023-03-23T20:51:42.919Z,2.30
2023-03-23T20:54:10.269Z,2.47
2023-03-23T20:56:40.433Z,2.30
2023-03-23T20:59:07.628Z,2.90
2023-03-23T21:01:35.050Z,2.50
2023-03-23T21:04:03.180Z,2.30
2023-03-23T21:06:31.357Z,2.33
2023-03-23T21:08:58.532Z,2.30
2023-03-23T21:11:27.000Z,2.57
2023-03-23T21:13:54.492Z,2.60
2023-03-23T21:16:23.984Z,2.90
2023-03-23T21:18:51.114Z,2.90
2023-03-23T21:21:18.526Z,2.70
2023-03-23T21:23:46.810Z,2.43
2023-03-23T21:26:16.932Z,2.40
2023-03-23T21:28:45.530Z,2.70
2023-03-23T21:31:13.569Z,2.70
2023-03-23T21:33:41.409Z,2.40
2023-03-23T21:36:08.650Z,2.63
2023-03-23T21:38:35.798Z,2.83
2023-03-23T21:41:09.025Z,2.53
2023-03-23T21:43:36.227Z,2.40
2023-03-23T21:46:06.099Z,2.40
2023-03-23T21:48:33.218Z,2.33
2023-03-23T21:51:13.070Z,2.60
2023-03-23T21:53:42.122Z,2.40
2023-03-23T21:56:10.491Z,2.37
2023-03-23T21:58:38.249Z,2.73
2023-03-23T22:01:05.666Z,4.80
2023-03-23T22:03:35.267Z,2.57
2023-03-23T22:06:09.236Z,2.37
2023-03-23T22:08:38.514Z,2.87
2023-03-23T22:11:19.031Z,2.50
2023-03-23T22:13:46.729Z,2.30
2023-03-23T22:16:17.762Z,2.30
2023-03-23T22:18:46.294Z,2.50
2023-03-23T22:21:14.754Z,2.47
2023-03-23T22:23:42.882Z,2.30
2023-03-23T22:26:10.714Z,2.60
2023-03-23T22:28:38.541Z,2.13
2023-03-23T22:31:08.982Z,2.50
2023-03-23T22:33:37.095Z,2.47
2023-03-23T22:36:06.487Z,2.30
2023-03-23T22:38:35.566Z,2.03
2023-03-23T22:41:05.167Z,2.97
2023-03-23T22:43:32.180Z,2.43
2023-03-23T22:45:59.519Z,2.47
2023-03-23T22:48:27.706Z,2.50
2023-03-23T22:50:55.655Z,2.60
2023-03-23T22:53:22.734Z,2.70
2023-03-23T22:55:51.686Z,2.40
2023-03-23T22:58:19.077Z,2.40
2023-03-23T23:00:51.562Z,2.30
2023-03-23T23:03:18.617Z,2.27
2023-03-23T23:05:50.356Z,2.50
2023-03-23T23:08:18.193Z,2.53
2023-03-23T23:10:47.789Z,3.40
2023-03-23T23:13:15.662Z,2.40
2023-03-23T23:15:47.076Z,3.40
2023-03-23T23:18:14.580Z,2.67
2023-03-23T23:20:43.975Z,3.83
2023-03-23T23:23:11.215Z,3.27
2023-03-23T23:25:38.526Z,3.07
2023-03-23T23:28:06.536Z,2.80
2023-03-23T23:30:34.314Z,2.50
2023-03-23T23:33:01.815Z,2.87
2023-03-23T23:35:29.115Z,2.30
2023-03-23T23:37:56.108Z,2.50
2023-03-23T23:40:23.488Z,2.03
2023-03-23T23:42:52.022Z,2.00
2023-03-23T23:45:19.558Z,2.30
2023-03-23T23:47:47.088Z,2.10
2023-03-23T23:50:14.848Z,2.13
2023-03-23T23:52:42.700Z,2.10
2023-03-23T23:55:12.380Z,4.20
2023-03-23T23:57:39.503Z,2.50
